Terminal Aerodrome Forecast
Issued by NWS Goodland, KS

Home | Current Version | Previous Version | Text Only | Print | Product List | Glossary On
Versions: 1 2 3 4 5 6 7 8 9 10 11 12 13 14 15
036
FTUS43 KGLD 240441 AAC
TAFGLD
TAF AMD
KGLD 240441Z 2405/2424 11009KT 5SM -TSRA BKN002CB
     FM240600 03009KT 5SM -SHRA BR BKN005
      TEMPO 2410/2414 1SM -RA BR OVC002
     FM241700 01009KT 6SM -SHRA BR OVC007
     FM242100 02006KT P6SM VCSH OVC015=

USA.gov is the U.S. government's official web portal to all federal, state and local government web resources and services.